sensor_id;sensor_type;location;lat;lon;timestamp;temperature;humidity
22426;DHT22;11380;50.822;15.790;2022-12-18T00:04:21;-6.60;99.90
22426;DHT22;11380;50.822;15.790;2022-12-18T00:09:29;-6.40;99.90
22426;DHT22;11380;50.822;15.790;2022-12-18T00:14:38;-6.50;99.90
22426;DHT22;11380;50.822;15.790;2022-12-18T00:19:45;-6.20;1.00
22426;DHT22;11380;50.822;15.790;2022-12-18T00:24:52;-6.40;99.90
22426;DHT22;11380;50.822;15.790;2022-12-18T00:29:58;-6.40;99.90
22426;DHT22;11380;50.822;15.790;2022-12-18T00:35:06;-6.60;99.90
22426;DHT22;11380;50.822;15.790;2022-12-18T00:40:13;-6.50;99.90
22426;DHT22;11380;50.822;15.790;2022-12-18T00:45:20;-6.60;99.90
22426;DHT22;11380;50.822;15.790;2022-12-18T00:50:28;-6.90;99.90
22426;DHT22;11380;50.822;15.790;2022-12-18T00:55:38;-6.90;99.90
22426;DHT22;11380;50.822;15.790;2022-12-18T01:00:45;-6.90;99.90
22426;DHT22;11380;50.822;15.790;2022-12-18T01:05:51;-7.00;99.90
22426;DHT22;11380;50.822;15.790;2022-12-18T01:10:58;-7.40;99.90
22426;DHT22;11380;50.822;15.790;2022-12-18T01:16:06;-7.40;1.00
22426;DHT22;11380;50.822;15.790;2022-12-18T01:21:15;-7.30;1.00
22426;DHT22;11380;50.822;15.790;2022-12-18T01:26:23;-7.40;1.00
22426;DHT22;11380;50.822;15.790;2022-12-18T01:31:32;-7.30;1.00
22426;DHT22;11380;50.822;15.790;2022-12-18T01:36:40;-7.30;1.00
22426;DHT22;11380;50.822;15.790;2022-12-18T01:41:47;-7.60;1.00
22426;DHT22;11380;50.822;15.790;2022-12-18T01:47:23;-7.50;1.00
22426;DHT22;11380;50.822;15.790;2022-12-18T01:52:33;-7.70;1.00
22426;DHT22;11380;50.822;15.790;2022-12-18T01:57:41;-7.80;1.00
22426;DHT22;11380;50.822;15.790;2022-12-18T02:02:48;-7.90;1.00
22426;DHT22;11380;50.822;15.790;2022-12-18T02:08:10;-7.50;1.00
22426;DHT22;11380;50.822;15.790;2022-12-18T02:13:41;-7.40;1.00
22426;DHT22;11380;50.822;15.790;2022-12-18T02:19:04;-7.40;1.00
22426;DHT22;11380;50.822;15.790;2022-12-18T02:24:29;-7.50;1.00
22426;DHT22;11380;50.822;15.790;2022-12-18T02:29:54;-7.30;1.00
22426;DHT22;11380;50.822;15.790;2022-12-18T02:35:04;-7.20;1.00
22426;DHT22;11380;50.822;15.790;2022-12-18T02:40:14;-7.00;1.00
22426;DHT22;11380;50.822;15.790;2022-12-18T02:45:21;-7.00;1.00
22426;DHT22;11380;50.822;15.790;2022-12-18T02:50:35;-6.90;1.00
22426;DHT22;11380;50.822;15.790;2022-12-18T02:56:15;-7.10;1.00
22426;DHT22;11380;50.822;15.790;2022-12-18T03:02:02;-7.20;1.00
22426;DHT22;11380;50.822;15.790;2022-12-18T03:07:09;-7.10;1.00
22426;DHT22;11380;50.822;15.790;2022-12-18T03:12:19;-7.10;1.00
22426;DHT22;11380;50.822;15.790;2022-12-18T03:17:32;-7.00;1.00
22426;DHT22;11380;50.822;15.790;2022-12-18T03:22:42;-7.10;1.00
22426;DHT22;11380;50.822;15.790;2022-12-18T03:27:53;-7.50;1.00
22426;DHT22;11380;50.822;15.790;2022-12-18T03:33:05;-7.90;1.00
22426;DHT22;11380;50.822;15.790;2022-12-18T03:38:15;-8.20;5.40
22426;DHT22;11380;50.822;15.790;2022-12-18T03:49:11;-8.10;29.90
22426;DHT22;11380;50.822;15.790;2022-12-18T03:54:24;-8.00;1.00
22426;DHT22;11380;50.822;15.790;2022-12-18T03:59:31;-8.30;1.00
22426;DHT22;11380;50.822;15.790;2022-12-18T04:04:40;-8.00;1.00
22426;DHT22;11380;50.822;15.790;2022-12-18T04:09:49;-7.70;1.00
22426;DHT22;11380;50.822;15.790;2022-12-18T04:14:58;-8.10;1.00
22426;DHT22;11380;50.822;15.790;2022-12-18T04:20:05;-8.40;1.00
22426;DHT22;11380;50.822;15.790;2022-12-18T04:25:12;-8.30;1.00
22426;DHT22;11380;50.822;15.790;2022-12-18T04:30:19;-8.40;1.00
22426;DHT22;11380;50.822;15.790;2022-12-18T04:35:24;-8.10;1.00
22426;DHT22;11380;50.822;15.790;2022-12-18T04:40:31;-8.10;1.00
22426;DHT22;11380;50.822;15.790;2022-12-18T04:45:37;-8.10;1.00
22426;DHT22;11380;50.822;15.790;2022-12-18T04:50:44;-8.10;1.00
22426;DHT22;11380;50.822;15.790;2022-12-18T04:56:01;-8.30;1.00
22426;DHT22;11380;50.822;15.790;2022-12-18T05:01:12;-8.50;1.00
22426;DHT22;11380;50.822;15.790;2022-12-18T05:06:20;-8.40;1.00
22426;DHT22;11380;50.822;15.790;2022-12-18T05:11:26;-8.20;1.00
22426;DHT22;11380;50.822;15.790;2022-12-18T05:16:33;-8.50;1.00
22426;DHT22;11380;50.822;15.790;2022-12-18T05:21:39;-8.60;1.00
22426;DHT22;11380;50.822;15.790;2022-12-18T05:26:46;-8.60;1.00
22426;DHT22;11380;50.822;15.790;2022-12-18T05:31:52;-8.50;1.00
22426;DHT22;11380;50.822;15.790;2022-12-18T05:36:59;-8.50;1.00
22426;DHT22;11380;50.822;15.790;2022-12-18T05:42:06;-8.30;1.00
22426;DHT22;11380;50.822;15.790;2022-12-18T05:47:13;-8.20;1.00
22426;DHT22;11380;50.822;15.790;2022-12-18T05:52:19;-8.20;1.00
22426;DHT22;11380;50.822;15.790;2022-12-18T05:57:25;-8.30;1.00
22426;DHT22;11380;50.822;15.790;2022-12-18T06:02:32;-8.50;1.00
22426;DHT22;11380;50.822;15.790;2022-12-18T06:07:39;-8.80;1.00
22426;DHT22;11380;50.822;15.790;2022-12-18T06:12:45;-9.10;1.00
22426;DHT22;11380;50.822;15.790;2022-12-18T06:17:53;-9.40;1.00
22426;DHT22;11380;50.822;15.790;2022-12-18T06:23:00;-9.70;1.00
22426;DHT22;11380;50.822;15.790;2022-12-18T06:28:05;-9.60;1.00
22426;DHT22;11380;50.822;15.790;2022-12-18T06:33:12;-9.80;1.00
22426;DHT22;11380;50.822;15.790;2022-12-18T06:38:20;-9.60;1.00
22426;DHT22;11380;50.822;15.790;2022-12-18T06:43:27;-9.60;1.00
22426;DHT22;11380;50.822;15.790;2022-12-18T06:48:34;-9.50;1.00
22426;DHT22;11380;50.822;15.790;2022-12-18T06:53:40;-9.60;1.00
22426;DHT22;11380;50.822;15.790;2022-12-18T06:58:47;-9.60;1.00
22426;DHT22;11380;50.822;15.790;2022-12-18T07:03:55;-9.70;1.00
22426;DHT22;11380;50.822;15.790;2022-12-18T07:09:02;-9.80;1.00
22426;DHT22;11380;50.822;15.790;2022-12-18T07:14:08;-9.90;1.00
22426;DHT22;11380;50.822;15.790;2022-12-18T07:19:15;-9.70;1.00
22426;DHT22;11380;50.822;15.790;2022-12-18T07:24:22;-10.60;1.00
22426;DHT22;11380;50.822;15.790;2022-12-18T07:29:29;-10.40;1.00
22426;DHT22;11380;50.822;15.790;2022-12-18T07:34:36;-9.90;1.00
22426;DHT22;11380;50.822;15.790;2022-12-18T07:39:43;-10.00;99.90
22426;DHT22;11380;50.822;15.790;2022-12-18T07:44:51;-10.30;99.90
22426;DHT22;11380;50.822;15.790;2022-12-18T07:49:58;-10.50;1.00
22426;DHT22;11380;50.822;15.790;2022-12-18T07:55:04;-10.50;1.00
22426;DHT22;11380;50.822;15.790;2022-12-18T08:00:12;-10.50;1.00
22426;DHT22;11380;50.822;15.790;2022-12-18T08:05:20;-10.40;1.00
22426;DHT22;11380;50.822;15.790;2022-12-18T08:10:27;-9.90;99.90
22426;DHT22;11380;50.822;15.790;2022-12-18T08:15:33;-10.30;99.90
22426;DHT22;11380;50.822;15.790;2022-12-18T08:20:44;-10.00;99.90
22426;DHT22;11380;50.822;15.790;2022-12-18T08:25:51;-9.40;1.00
22426;DHT22;11380;50.822;15.790;2022-12-18T08:30:58;-9.70;1.00
22426;DHT22;11380;50.822;15.790;2022-12-18T08:36:05;-9.20;99.90
22426;DHT22;11380;50.822;15.790;2022-12-18T08:41:16;-8.70;1.00
22426;DHT22;11380;50.822;15.790;2022-12-18T08:46:25;-9.10;1.00
22426;DHT22;11380;50.822;15.790;2022-12-18T08:51:33;-9.50;1.00
22426;DHT22;11380;50.822;15.790;2022-12-18T08:56:42;-9.10;99.90
22426;DHT22;11380;50.822;15.790;2022-12-18T09:01:50;-8.70;1.00
22426;DHT22;11380;50.822;15.790;2022-12-18T09:06:59;-7.90;99.90
22426;DHT22;11380;50.822;15.790;2022-12-18T09:12:06;-7.00;1.00
22426;DHT22;11380;50.822;15.790;2022-12-18T09:17:14;-6.60;1.00
22426;DHT22;11380;50.822;15.790;2022-12-18T09:22:21;-6.60;99.90
22426;DHT22;11380;50.822;15.790;2022-12-18T09:27:28;-6.40;99.90
22426;DHT22;11380;50.822;15.790;2022-12-18T09:32:34;-6.10;99.90
22426;DHT22;11380;50.822;15.790;2022-12-18T09:37:40;-5.90;99.90
22426;DHT22;11380;50.822;15.790;2022-12-18T09:42:51;-5.60;99.90
22426;DHT22;11380;50.822;15.790;2022-12-18T09:48:02;-5.10;99.90
22426;DHT22;11380;50.822;15.790;2022-12-18T09:53:17;-5.50;1.00
22426;DHT22;11380;50.822;15.790;2022-12-18T09:58:31;-4.60;1.00
22426;DHT22;11380;50.822;15.790;2022-12-18T10:03:37;-4.80;99.90
22426;DHT22;11380;50.822;15.790;2022-12-18T10:09:06;-4.00;99.90
22426;DHT22;11380;50.822;15.790;2022-12-18T10:20:15;-4.00;1.00
22426;DHT22;11380;50.822;15.790;2022-12-18T10:30:59;-3.40;99.90
22426;DHT22;11380;50.822;15.790;2022-12-18T10:36:08;-3.40;99.90
22426;DHT22;11380;50.822;15.790;2022-12-18T10:46:33;-2.40;99.90
22426;DHT22;11380;50.822;15.790;2022-12-18T10:51:40;-2.40;99.90
22426;DHT22;11380;50.822;15.790;2022-12-18T10:56:46;-3.00;99.90
22426;DHT22;11380;50.822;15.790;2022-12-18T11:01:57;-2.80;99.90
22426;DHT22;11380;50.822;15.790;2022-12-18T11:07:07;-3.00;99.90
22426;DHT22;11380;50.822;15.790;2022-12-18T11:12:17;-2.80;1.00
22426;DHT22;11380;50.822;15.790;2022-12-18T11:17:33;-2.70;1.00
22426;DHT22;11380;50.822;15.790;2022-12-18T11:22:40;-3.00;1.00
22426;DHT22;11380;50.822;15.790;2022-12-18T11:27:57;-3.30;1.00
22426;DHT22;11380;50.822;15.790;2022-12-18T11:33:08;-3.20;1.00
22426;DHT22;11380;50.822;15.790;2022-12-18T11:38:26;-3.20;1.00
22426;DHT22;11380;50.822;15.790;2022-12-18T11:43:53;-2.70;99.90
22426;DHT22;11380;50.822;15.790;2022-12-18T11:49:06;-2.80;99.90
22426;DHT22;11380;50.822;15.790;2022-12-18T11:54:19;-2.60;99.90
22426;DHT22;11380;50.822;15.790;2022-12-18T11:59:36;-2.80;99.90
22426;DHT22;11380;50.822;15.790;2022-12-18T12:16:06;-3.50;99.90
22426;DHT22;11380;50.822;15.790;2022-12-18T12:21:42;-2.90;1.00
22426;DHT22;11380;50.822;15.790;2022-12-18T12:43:19;-2.60;1.00
22426;DHT22;11380;50.822;15.790;2022-12-18T12:54:05;-2.50;99.90
22426;DHT22;11380;50.822;15.790;2022-12-18T12:59:22;-2.60;1.00
22426;DHT22;11380;50.822;15.790;2022-12-18T13:04:52;-3.00;1.00
22426;DHT22;11380;50.822;15.790;2022-12-18T13:15:39;-3.00;99.90
22426;DHT22;11380;50.822;15.790;2022-12-18T13:36:48;-3.50;99.90
22426;DHT22;11380;50.822;15.790;2022-12-18T13:47:36;-4.00;99.90
22426;DHT22;11380;50.822;15.790;2022-12-18T13:52:44;-4.20;1.00
22426;DHT22;11380;50.822;15.790;2022-12-18T13:58:02;-4.30;99.90
22426;DHT22;11380;50.822;15.790;2022-12-18T14:03:27;-4.50;1.00
22426;DHT22;11380;50.822;15.790;2022-12-18T14:08:39;-4.70;1.00
22426;DHT22;11380;50.822;15.790;2022-12-18T14:13:48;-5.20;99.90
22426;DHT22;11380;50.822;15.790;2022-12-18T14:18:56;-5.70;99.90
22426;DHT22;11380;50.822;15.790;2022-12-18T14:24:21;-5.60;90.10
22426;DHT22;11380;50.822;15.790;2022-12-18T14:29:30;-5.70;56.00
22426;DHT22;11380;50.822;15.790;2022-12-18T14:34:38;-5.70;1.00
22426;DHT22;11380;50.822;15.790;2022-12-18T14:39:55;-5.90;99.90
22426;DHT22;11380;50.822;15.790;2022-12-18T14:45:39;-6.20;1.00
22426;DHT22;11380;50.822;15.790;2022-12-18T14:51:06;-6.80;99.90
22426;DHT22;11380;50.822;15.790;2022-12-18T14:56:26;-6.70;99.90
22426;DHT22;11380;50.822;15.790;2022-12-18T15:01:39;-6.60;99.90
22426;DHT22;11380;50.822;15.790;2022-12-18T15:06:47;-7.20;99.90
22426;DHT22;11380;50.822;15.790;2022-12-18T15:11:59;-7.40;1.00
22426;DHT22;11380;50.822;15.790;2022-12-18T15:17:17;-7.60;99.90
22426;DHT22;11380;50.822;15.790;2022-12-18T15:22:34;-7.80;99.90
22426;DHT22;11380;50.822;15.790;2022-12-18T15:27:44;-8.30;1.00
22426;DHT22;11380;50.822;15.790;2022-12-18T15:32:55;-9.20;99.90
22426;DHT22;11380;50.822;15.790;2022-12-18T15:38:18;-8.50;1.00
22426;DHT22;11380;50.822;15.790;2022-12-18T15:43:24;-8.70;1.00
22426;DHT22;11380;50.822;15.790;2022-12-18T15:48:52;-8.90;1.00
22426;DHT22;11380;50.822;15.790;2022-12-18T15:54:08;-9.10;1.00
22426;DHT22;11380;50.822;15.790;2022-12-18T15:59:19;-9.10;1.00
22426;DHT22;11380;50.822;15.790;2022-12-18T16:04:26;-9.00;99.90
22426;DHT22;11380;50.822;15.790;2022-12-18T16:09:33;-9.30;1.00
22426;DHT22;11380;50.822;15.790;2022-12-18T16:14:39;-9.30;99.90
22426;DHT22;11380;50.822;15.790;2022-12-18T16:19:46;-9.70;48.00
22426;DHT22;11380;50.822;15.790;2022-12-18T16:24:54;-9.40;99.90
22426;DHT22;11380;50.822;15.790;2022-12-18T16:30:02;-9.50;1.00
22426;DHT22;11380;50.822;15.790;2022-12-18T16:35:11;-9.70;99.90
22426;DHT22;11380;50.822;15.790;2022-12-18T16:40:19;-9.80;99.90
22426;DHT22;11380;50.822;15.790;2022-12-18T16:45:26;-10.10;40.00
22426;DHT22;11380;50.822;15.790;2022-12-18T16:50:34;-10.10;99.90
22426;DHT22;11380;50.822;15.790;2022-12-18T16:55:44;-10.20;99.90
22426;DHT22;11380;50.822;15.790;2022-12-18T17:00:50;-10.40;1.00
22426;DHT22;11380;50.822;15.790;2022-12-18T17:06:07;-10.80;99.90
22426;DHT22;11380;50.822;15.790;2022-12-18T17:11:12;-10.50;1.00
22426;DHT22;11380;50.822;15.790;2022-12-18T17:16:19;-11.10;1.00
22426;DHT22;11380;50.822;15.790;2022-12-18T17:21:26;-12.00;1.00
22426;DHT22;11380;50.822;15.790;2022-12-18T17:26:33;-11.30;93.90
22426;DHT22;11380;50.822;15.790;2022-12-18T17:31:39;-11.30;1.00
22426;DHT22;11380;50.822;15.790;2022-12-18T17:36:47;-11.40;1.00
22426;DHT22;11380;50.822;15.790;2022-12-18T17:41:54;-11.40;99.90
22426;DHT22;11380;50.822;15.790;2022-12-18T17:47:02;-11.20;1.00
22426;DHT22;11380;50.822;15.790;2022-12-18T17:52:11;-11.30;1.00
22426;DHT22;11380;50.822;15.790;2022-12-18T17:57:19;-11.30;99.90
22426;DHT22;11380;50.822;15.790;2022-12-18T18:02:27;-12.00;1.00
22426;DHT22;11380;50.822;15.790;2022-12-18T18:07:35;-12.00;99.90
22426;DHT22;11380;50.822;15.790;2022-12-18T18:12:42;-12.20;46.20
22426;DHT22;11380;50.822;15.790;2022-12-18T18:18:06;-11.70;99.90
22426;DHT22;11380;50.822;15.790;2022-12-18T18:23:15;-11.70;1.00
22426;DHT22;11380;50.822;15.790;2022-12-18T18:28:23;-11.40;1.00
22426;DHT22;11380;50.822;15.790;2022-12-18T18:33:30;-11.40;73.10
22426;DHT22;11380;50.822;15.790;2022-12-18T18:38:37;-11.20;1.00
22426;DHT22;11380;50.822;15.790;2022-12-18T18:43:46;-11.70;1.00
22426;DHT22;11380;50.822;15.790;2022-12-18T18:48:54;-11.70;1.00
22426;DHT22;11380;50.822;15.790;2022-12-18T18:54:01;-11.40;1.00
22426;DHT22;11380;50.822;15.790;2022-12-18T18:59:09;-11.40;1.00
22426;DHT22;11380;50.822;15.790;2022-12-18T19:04:16;-11.70;1.00
22426;DHT22;11380;50.822;15.790;2022-12-18T19:09:23;-11.60;99.90
22426;DHT22;11380;50.822;15.790;2022-12-18T19:14:31;-11.70;1.00
22426;DHT22;11380;50.822;15.790;2022-12-18T19:19:38;-11.80;23.20
22426;DHT22;11380;50.822;15.790;2022-12-18T19:24:46;-11.50;99.90
22426;DHT22;11380;50.822;15.790;2022-12-18T19:29:52;-11.60;1.00
22426;DHT22;11380;50.822;15.790;2022-12-18T19:34:59;-11.70;1.00
22426;DHT22;11380;50.822;15.790;2022-12-18T19:40:07;-11.50;1.00
22426;DHT22;11380;50.822;15.790;2022-12-18T19:45:17;-11.60;99.90
22426;DHT22;11380;50.822;15.790;2022-12-18T19:50:26;-11.30;99.90
22426;DHT22;11380;50.822;15.790;2022-12-18T19:55:32;-11.40;99.90
22426;DHT22;11380;50.822;15.790;2022-12-18T20:00:41;-11.30;99.90
22426;DHT22;11380;50.822;15.790;2022-12-18T20:05:49;-10.80;1.00
22426;DHT22;11380;50.822;15.790;2022-12-18T20:10:56;-10.40;1.00
22426;DHT22;11380;50.822;15.790;2022-12-18T20:16:04;-10.40;1.00
22426;DHT22;11380;50.822;15.790;2022-12-18T20:21:11;-10.30;1.00
22426;DHT22;11380;50.822;15.790;2022-12-18T20:26:18;-10.50;1.00
22426;DHT22;11380;50.822;15.790;2022-12-18T20:31:28;-10.70;99.90
22426;DHT22;11380;50.822;15.790;2022-12-18T20:36:35;-10.50;1.00
22426;DHT22;11380;50.822;15.790;2022-12-18T20:41:43;-10.40;1.00
22426;DHT22;11380;50.822;15.790;2022-12-18T20:46:55;-10.40;1.00
22426;DHT22;11380;50.822;15.790;2022-12-18T20:52:05;-10.10;1.00
22426;DHT22;11380;50.822;15.790;2022-12-18T20:57:13;-9.90;1.00
22426;DHT22;11380;50.822;15.790;2022-12-18T21:02:21;-9.80;1.00
22426;DHT22;11380;50.822;15.790;2022-12-18T21:07:30;-9.70;1.00
22426;DHT22;11380;50.822;15.790;2022-12-18T21:12:37;-9.50;1.00
22426;DHT22;11380;50.822;15.790;2022-12-18T21:17:48;-9.40;1.00
22426;DHT22;11380;50.822;15.790;2022-12-18T21:22:58;-9.40;1.00
22426;DHT22;11380;50.822;15.790;2022-12-18T21:28:09;-9.00;1.00
22426;DHT22;11380;50.822;15.790;2022-12-18T21:33:17;-9.30;1.00
22426;DHT22;11380;50.822;15.790;2022-12-18T21:38:26;-8.60;1.00
22426;DHT22;11380;50.822;15.790;2022-12-18T21:43:38;-8.70;1.00
22426;DHT22;11380;50.822;15.790;2022-12-18T21:49:00;-8.50;1.00
22426;DHT22;11380;50.822;15.790;2022-12-18T21:54:08;-8.30;1.00
22426;DHT22;11380;50.822;15.790;2022-12-18T21:59:20;-7.90;1.00
22426;DHT22;11380;50.822;15.790;2022-12-18T22:04:27;-8.20;1.00
22426;DHT22;11380;50.822;15.790;2022-12-18T22:09:34;-8.10;1.00
22426;DHT22;11380;50.822;15.790;2022-12-18T22:14:42;-7.80;1.00
22426;DHT22;11380;50.822;15.790;2022-12-18T22:19:49;-7.00;1.00
22426;DHT22;11380;50.822;15.790;2022-12-18T22:24:56;-6.30;1.00
22426;DHT22;11380;50.822;15.790;2022-12-18T22:30:04;-6.10;1.00
22426;DHT22;11380;50.822;15.790;2022-12-18T22:35:13;-4.30;54.20
22426;DHT22;11380;50.822;15.790;2022-12-18T22:40:22;-3.60;90.60
22426;DHT22;11380;50.822;15.790;2022-12-18T22:45:29;-3.00;79.60
22426;DHT22;11380;50.822;15.790;2022-12-18T22:50:37;-1.60;60.00
22426;DHT22;11380;50.822;15.790;2022-12-18T22:55:44;-0.60;48.10
22426;DHT22;11380;50.822;15.790;2022-12-18T23:00:50;0.50;30.10
22426;DHT22;11380;50.822;15.790;2022-12-18T23:06:05;0.30;34.50
22426;DHT22;11380;50.822;15.790;2022-12-18T23:11:14;-0.90;42.80
22426;DHT22;11380;50.822;15.790;2022-12-18T23:16:21;-0.10;42.60
22426;DHT22;11380;50.822;15.790;2022-12-18T23:21:28;0.00;33.00
22426;DHT22;11380;50.822;15.790;2022-12-18T23:26:36;-0.60;41.40
22426;DHT22;11380;50.822;15.790;2022-12-18T23:31:43;-0.40;41.80
22426;DHT22;11380;50.822;15.790;2022-12-18T23:36:50;1.10;28.30
22426;DHT22;11380;50.822;15.790;2022-12-18T23:41:59;0.50;29.90
22426;DHT22;11380;50.822;15.790;2022-12-18T23:47:05;-0.10;36.40
22426;DHT22;11380;50.822;15.790;2022-12-18T23:52:12;0.40;32.20
22426;DHT22;11380;50.822;15.790;2022-12-18T23:57:19;0.50;29.60
